Waterville, Iowa
Current Conditions -  °F | °C
As of 10:55 PM on Thursday 30 Oct 2014 (Local Time) from KPDC Reporting Station
Overcast Overcast  
Wind Chill: 39°   Ceiling: 3100
Heat Index: 46°   Visibility: 10mi
Dew Point: 31°   Wind: 14mph
Humidity: 57%   Direction: 310°NW
Pressure: 30.15"   Gusts: 30mph
Location:  43.21°N, 91.3°W
Report Text: KPDC 310355Z AUTO 31012G26KT 10SM OVC031 08/M01 A3015 RMK AO2 T00751006
Loading
Personal Weather Stations






























Interactive Weather Map
Tropical Storm Tracking
New forecast layout! Learn more

10-Day Weather Forecast

Advertisements
Track Severe Weather on mobile